sensor_id;sensor_type;location;lat;lon;timestamp;P1;durP1;ratioP1;P2;durP2;ratioP2
7875;SDS011;69649;53.712;9.680;2023-07-29T00:02:01;5.43;;;3.90;;
7875;SDS011;69649;53.712;9.680;2023-07-29T00:04:26;6.53;;;4.00;;
7875;SDS011;69649;53.712;9.680;2023-07-29T00:06:52;4.10;;;3.27;;
7875;SDS011;69649;53.712;9.680;2023-07-29T00:09:18;5.90;;;4.23;;
7875;SDS011;69649;53.712;9.680;2023-07-29T00:11:43;7.53;;;4.20;;
7875;SDS011;69649;53.712;9.680;2023-07-29T00:14:09;4.43;;;3.67;;
7875;SDS011;69649;53.712;9.680;2023-07-29T00:16:35;7.37;;;4.03;;
7875;SDS011;69649;53.712;9.680;2023-07-29T00:19:02;5.23;;;4.10;;
7875;SDS011;69649;53.712;9.680;2023-07-29T00:21:28;7.17;;;3.77;;
7875;SDS011;69649;53.712;9.680;2023-07-29T00:23:54;3.93;;;3.17;;
7875;SDS011;69649;53.712;9.680;2023-07-29T00:26:21;4.80;;;3.80;;
7875;SDS011;69649;53.712;9.680;2023-07-29T00:28:47;6.80;;;4.00;;
7875;SDS011;69649;53.712;9.680;2023-07-29T00:31:13;3.93;;;3.40;;
7875;SDS011;69649;53.712;9.680;2023-07-29T00:33:39;4.03;;;3.37;;
7875;SDS011;69649;53.712;9.680;2023-07-29T00:36:04;5.77;;;4.10;;
7875;SDS011;69649;53.712;9.680;2023-07-29T00:38:30;6.03;;;4.40;;
7875;SDS011;69649;53.712;9.680;2023-07-29T00:40:59;7.17;;;4.27;;
7875;SDS011;69649;53.712;9.680;2023-07-29T00:43:27;8.37;;;4.10;;
7875;SDS011;69649;53.712;9.680;2023-07-29T00:45:53;4.93;;;3.97;;
7875;SDS011;69649;53.712;9.680;2023-07-29T00:48:19;5.40;;;4.20;;
7875;SDS011;69649;53.712;9.680;2023-07-29T00:50:45;5.20;;;4.23;;
7875;SDS011;69649;53.712;9.680;2023-07-29T00:53:11;6.97;;;4.60;;
7875;SDS011;69649;53.712;9.680;2023-07-29T00:55:37;7.43;;;4.60;;
7875;SDS011;69649;53.712;9.680;2023-07-29T00:58:03;5.03;;;4.20;;
7875;SDS011;69649;53.712;9.680;2023-07-29T01:00:29;10.13;;;5.13;;
7875;SDS011;69649;53.712;9.680;2023-07-29T01:02:55;6.97;;;4.40;;
7875;SDS011;69649;53.712;9.680;2023-07-29T01:05:21;8.67;;;5.20;;
7875;SDS011;69649;53.712;9.680;2023-07-29T01:08:05;5.57;;;4.17;;
7875;SDS011;69649;53.712;9.680;2023-07-29T01:13:24;6.23;;;4.33;;
7875;SDS011;69649;53.712;9.680;2023-07-29T01:16:02;6.53;;;4.17;;
7875;SDS011;69649;53.712;9.680;2023-07-29T01:18:34;5.03;;;4.10;;
7875;SDS011;69649;53.712;9.680;2023-07-29T01:21:05;4.77;;;4.27;;
7875;SDS011;69649;53.712;9.680;2023-07-29T01:23:33;4.43;;;4.03;;
7875;SDS011;69649;53.712;9.680;2023-07-29T01:26:00;7.07;;;4.50;;
7875;SDS011;69649;53.712;9.680;2023-07-29T01:28:27;5.67;;;4.70;;
7875;SDS011;69649;53.712;9.680;2023-07-29T01:33:46;4.60;;;4.07;;
7875;SDS011;69649;53.712;9.680;2023-07-29T01:36:14;7.77;;;4.20;;
7875;SDS011;69649;53.712;9.680;2023-07-29T01:38:43;6.47;;;4.23;;
7875;SDS011;69649;53.712;9.680;2023-07-29T01:41:10;6.47;;;4.47;;
7875;SDS011;69649;53.712;9.680;2023-07-29T01:43:36;6.60;;;4.80;;
7875;SDS011;69649;53.712;9.680;2023-07-29T01:46:05;6.00;;;4.13;;
7875;SDS011;69649;53.712;9.680;2023-07-29T01:48:31;6.53;;;4.70;;
7875;SDS011;69649;53.712;9.680;2023-07-29T01:50:57;5.97;;;4.50;;
7875;SDS011;69649;53.712;9.680;2023-07-29T01:53:23;5.77;;;4.20;;
7875;SDS011;69649;53.712;9.680;2023-07-29T01:55:49;6.80;;;4.70;;
7875;SDS011;69649;53.712;9.680;2023-07-29T01:58:14;5.87;;;5.23;;
7875;SDS011;69649;53.712;9.680;2023-07-29T02:00:40;7.10;;;4.80;;
7875;SDS011;69649;53.712;9.680;2023-07-29T02:03:06;7.90;;;5.03;;
7875;SDS011;69649;53.712;9.680;2023-07-29T02:05:32;9.33;;;5.17;;
7875;SDS011;69649;53.712;9.680;2023-07-29T02:07:57;7.63;;;5.83;;
7875;SDS011;69649;53.712;9.680;2023-07-29T02:10:23;8.53;;;5.50;;
7875;SDS011;69649;53.712;9.680;2023-07-29T02:12:49;6.80;;;5.17;;
7875;SDS011;69649;53.712;9.680;2023-07-29T02:15:15;6.13;;;4.93;;
7875;SDS011;69649;53.712;9.680;2023-07-29T02:17:41;6.73;;;5.13;;
7875;SDS011;69649;53.712;9.680;2023-07-29T02:20:08;7.17;;;4.87;;
7875;SDS011;69649;53.712;9.680;2023-07-29T02:22:36;8.03;;;5.83;;
7875;SDS011;69649;53.712;9.680;2023-07-29T02:25:01;8.53;;;6.33;;
7875;SDS011;69649;53.712;9.680;2023-07-29T02:27:28;6.77;;;5.03;;
7875;SDS011;69649;53.712;9.680;2023-07-29T02:29:54;7.70;;;5.30;;
7875;SDS011;69649;53.712;9.680;2023-07-29T02:32:20;9.00;;;5.27;;
7875;SDS011;69649;53.712;9.680;2023-07-29T02:34:46;8.10;;;5.50;;
7875;SDS011;69649;53.712;9.680;2023-07-29T02:37:12;7.80;;;5.20;;
7875;SDS011;69649;53.712;9.680;2023-07-29T02:39:37;6.77;;;5.13;;
7875;SDS011;69649;53.712;9.680;2023-07-29T02:42:03;6.80;;;5.07;;
7875;SDS011;69649;53.712;9.680;2023-07-29T02:44:29;8.33;;;5.20;;
7875;SDS011;69649;53.712;9.680;2023-07-29T02:46:55;6.07;;;5.10;;
7875;SDS011;69649;53.712;9.680;2023-07-29T02:49:21;6.43;;;4.97;;
7875;SDS011;69649;53.712;9.680;2023-07-29T02:51:49;7.83;;;5.90;;
7875;SDS011;69649;53.712;9.680;2023-07-29T02:54:14;6.17;;;4.87;;
7875;SDS011;69649;53.712;9.680;2023-07-29T02:56:40;8.87;;;5.60;;
7875;SDS011;69649;53.712;9.680;2023-07-29T02:59:06;7.20;;;5.20;;
7875;SDS011;69649;53.712;9.680;2023-07-29T03:01:31;5.87;;;4.73;;
7875;SDS011;69649;53.712;9.680;2023-07-29T03:03:57;7.57;;;5.30;;
7875;SDS011;69649;53.712;9.680;2023-07-29T03:06:23;7.00;;;5.40;;
7875;SDS011;69649;53.712;9.680;2023-07-29T03:08:49;8.33;;;5.80;;
7875;SDS011;69649;53.712;9.680;2023-07-29T03:11:15;6.43;;;4.90;;
7875;SDS011;69649;53.712;9.680;2023-07-29T03:13:42;8.53;;;4.97;;
7875;SDS011;69649;53.712;9.680;2023-07-29T03:18:37;7.37;;;5.40;;
7875;SDS011;69649;53.712;9.680;2023-07-29T03:21:03;7.27;;;5.77;;
7875;SDS011;69649;53.712;9.680;2023-07-29T03:23:30;8.00;;;5.87;;
7875;SDS011;69649;53.712;9.680;2023-07-29T03:25:57;9.33;;;6.53;;
7875;SDS011;69649;53.712;9.680;2023-07-29T03:28:28;7.13;;;5.87;;
7875;SDS011;69649;53.712;9.680;2023-07-29T03:30:55;8.13;;;6.07;;
7875;SDS011;69649;53.712;9.680;2023-07-29T03:33:22;8.47;;;6.73;;
7875;SDS011;69649;53.712;9.680;2023-07-29T03:35:48;10.50;;;7.70;;
7875;SDS011;69649;53.712;9.680;2023-07-29T03:38:14;8.97;;;6.80;;
7875;SDS011;69649;53.712;9.680;2023-07-29T03:40:40;9.43;;;7.00;;
7875;SDS011;69649;53.712;9.680;2023-07-29T03:43:07;8.33;;;6.47;;
7875;SDS011;69649;53.712;9.680;2023-07-29T03:45:33;9.13;;;7.10;;
7875;SDS011;69649;53.712;9.680;2023-07-29T03:48:00;9.10;;;7.23;;
7875;SDS011;69649;53.712;9.680;2023-07-29T03:50:26;10.43;;;7.73;;
7875;SDS011;69649;53.712;9.680;2023-07-29T03:52:52;9.90;;;7.83;;
7875;SDS011;69649;53.712;9.680;2023-07-29T03:55:18;10.53;;;8.37;;
7875;SDS011;69649;53.712;9.680;2023-07-29T03:57:44;9.53;;;7.93;;
7875;SDS011;69649;53.712;9.680;2023-07-29T04:00:10;11.73;;;8.67;;
7875;SDS011;69649;53.712;9.680;2023-07-29T04:02:36;12.13;;;8.73;;
7875;SDS011;69649;53.712;9.680;2023-07-29T04:05:03;14.43;;;10.10;;
7875;SDS011;69649;53.712;9.680;2023-07-29T04:07:30;15.23;;;10.50;;
7875;SDS011;69649;53.712;9.680;2023-07-29T04:09:56;20.30;;;12.73;;
7875;SDS011;69649;53.712;9.680;2023-07-29T04:12:22;16.30;;;11.30;;
7875;SDS011;69649;53.712;9.680;2023-07-29T04:14:50;18.63;;;12.83;;
7875;SDS011;69649;53.712;9.680;2023-07-29T04:17:15;22.77;;;14.23;;
7875;SDS011;69649;53.712;9.680;2023-07-29T04:19:41;22.63;;;14.57;;
7875;SDS011;69649;53.712;9.680;2023-07-29T04:22:07;21.07;;;14.20;;
7875;SDS011;69649;53.712;9.680;2023-07-29T04:24:33;26.83;;;14.83;;
7875;SDS011;69649;53.712;9.680;2023-07-29T04:26:58;25.10;;;14.60;;
7875;SDS011;69649;53.712;9.680;2023-07-29T04:29:24;23.83;;;14.37;;
7875;SDS011;69649;53.712;9.680;2023-07-29T04:31:50;22.70;;;15.23;;
7875;SDS011;69649;53.712;9.680;2023-07-29T04:34:17;24.47;;;16.33;;
7875;SDS011;69649;53.712;9.680;2023-07-29T04:36:44;24.73;;;15.27;;
7875;SDS011;69649;53.712;9.680;2023-07-29T04:39:10;21.40;;;13.77;;
7875;SDS011;69649;53.712;9.680;2023-07-29T04:41:36;27.27;;;15.47;;
7875;SDS011;69649;53.712;9.680;2023-07-29T04:44:02;23.03;;;14.73;;
7875;SDS011;69649;53.712;9.680;2023-07-29T04:46:28;21.97;;;14.63;;
7875;SDS011;69649;53.712;9.680;2023-07-29T04:48:54;23.03;;;15.43;;
7875;SDS011;69649;53.712;9.680;2023-07-29T04:51:19;21.53;;;14.07;;
7875;SDS011;69649;53.712;9.680;2023-07-29T04:53:45;22.47;;;14.47;;
7875;SDS011;69649;53.712;9.680;2023-07-29T04:56:11;20.90;;;14.43;;
7875;SDS011;69649;53.712;9.680;2023-07-29T04:58:37;21.10;;;13.33;;
7875;SDS011;69649;53.712;9.680;2023-07-29T05:01:03;19.63;;;13.77;;
7875;SDS011;69649;53.712;9.680;2023-07-29T05:03:29;19.87;;;14.03;;
7875;SDS011;69649;53.712;9.680;2023-07-29T05:05:55;20.20;;;13.33;;
7875;SDS011;69649;53.712;9.680;2023-07-29T05:08:22;19.90;;;14.17;;
7875;SDS011;69649;53.712;9.680;2023-07-29T05:10:48;23.73;;;15.23;;
7875;SDS011;69649;53.712;9.680;2023-07-29T05:13:15;20.90;;;16.23;;
7875;SDS011;69649;53.712;9.680;2023-07-29T05:15:41;21.57;;;15.00;;
7875;SDS011;69649;53.712;9.680;2023-07-29T05:18:07;20.60;;;14.67;;
7875;SDS011;69649;53.712;9.680;2023-07-29T05:20:33;20.40;;;14.43;;
7875;SDS011;69649;53.712;9.680;2023-07-29T05:22:59;20.60;;;14.17;;
7875;SDS011;69649;53.712;9.680;2023-07-29T05:25:25;16.77;;;13.30;;
7875;SDS011;69649;53.712;9.680;2023-07-29T05:27:50;21.20;;;15.13;;
7875;SDS011;69649;53.712;9.680;2023-07-29T05:30:16;20.27;;;15.23;;
7875;SDS011;69649;53.712;9.680;2023-07-29T05:32:42;19.87;;;13.30;;
7875;SDS011;69649;53.712;9.680;2023-07-29T05:35:08;22.60;;;14.60;;
7875;SDS011;69649;53.712;9.680;2023-07-29T05:37:34;20.80;;;14.40;;
7875;SDS011;69649;53.712;9.680;2023-07-29T05:39:59;20.63;;;14.00;;
7875;SDS011;69649;53.712;9.680;2023-07-29T05:42:25;18.73;;;13.97;;
7875;SDS011;69649;53.712;9.680;2023-07-29T05:44:51;19.57;;;13.83;;
7875;SDS011;69649;53.712;9.680;2023-07-29T05:47:17;20.00;;;15.10;;
7875;SDS011;69649;53.712;9.680;2023-07-29T05:49:42;17.00;;;12.60;;
7875;SDS011;69649;53.712;9.680;2023-07-29T05:52:08;19.20;;;14.33;;
7875;SDS011;69649;53.712;9.680;2023-07-29T05:54:34;19.77;;;14.80;;
7875;SDS011;69649;53.712;9.680;2023-07-29T05:57:00;21.63;;;15.47;;
7875;SDS011;69649;53.712;9.680;2023-07-29T05:59:26;20.90;;;15.20;;
7875;SDS011;69649;53.712;9.680;2023-07-29T06:01:53;21.57;;;14.33;;
7875;SDS011;69649;53.712;9.680;2023-07-29T06:04:19;19.87;;;14.80;;
7875;SDS011;69649;53.712;9.680;2023-07-29T06:06:45;19.77;;;14.63;;
7875;SDS011;69649;53.712;9.680;2023-07-29T06:09:10;19.83;;;14.20;;
7875;SDS011;69649;53.712;9.680;2023-07-29T06:11:36;22.00;;;15.33;;
7875;SDS011;69649;53.712;9.680;2023-07-29T06:14:02;20.33;;;14.43;;
7875;SDS011;69649;53.712;9.680;2023-07-29T06:16:28;23.60;;;16.23;;
7875;SDS011;69649;53.712;9.680;2023-07-29T06:18:53;21.97;;;14.50;;
7875;SDS011;69649;53.712;9.680;2023-07-29T06:21:19;18.87;;;14.43;;
7875;SDS011;69649;53.712;9.680;2023-07-29T06:23:45;22.60;;;14.43;;
7875;SDS011;69649;53.712;9.680;2023-07-29T06:26:12;16.90;;;13.63;;
7875;SDS011;69649;53.712;9.680;2023-07-29T06:28:38;18.60;;;14.00;;
7875;SDS011;69649;53.712;9.680;2023-07-29T06:31:04;18.30;;;14.07;;
7875;SDS011;69649;53.712;9.680;2023-07-29T06:33:30;16.70;;;14.17;;
7875;SDS011;69649;53.712;9.680;2023-07-29T06:35:55;17.67;;;13.17;;
7875;SDS011;69649;53.712;9.680;2023-07-29T06:38:21;19.80;;;14.87;;
7875;SDS011;69649;53.712;9.680;2023-07-29T06:40:47;20.30;;;14.27;;
7875;SDS011;69649;53.712;9.680;2023-07-29T06:43:14;16.70;;;13.17;;
7875;SDS011;69649;53.712;9.680;2023-07-29T06:45:40;16.53;;;13.13;;
7875;SDS011;69649;53.712;9.680;2023-07-29T06:48:05;21.93;;;14.17;;
7875;SDS011;69649;53.712;9.680;2023-07-29T06:50:31;16.53;;;13.50;;
7875;SDS011;69649;53.712;9.680;2023-07-29T06:52:57;18.63;;;14.10;;
7875;SDS011;69649;53.712;9.680;2023-07-29T06:55:23;18.57;;;14.10;;
7875;SDS011;69649;53.712;9.680;2023-07-29T06:57:49;21.90;;;14.37;;
7875;SDS011;69649;53.712;9.680;2023-07-29T07:00:14;17.60;;;13.20;;
7875;SDS011;69649;53.712;9.680;2023-07-29T07:02:40;16.60;;;12.87;;
7875;SDS011;69649;53.712;9.680;2023-07-29T07:05:07;13.13;;;11.73;;
7875;SDS011;69649;53.712;9.680;2023-07-29T07:07:33;15.27;;;12.00;;
7875;SDS011;69649;53.712;9.680;2023-07-29T07:09:59;14.47;;;10.97;;
7875;SDS011;69649;53.712;9.680;2023-07-29T07:12:25;15.07;;;11.07;;
7875;SDS011;69649;53.712;9.680;2023-07-29T07:14:50;15.43;;;11.20;;
7875;SDS011;69649;53.712;9.680;2023-07-29T07:17:16;17.47;;;11.60;;
7875;SDS011;69649;53.712;9.680;2023-07-29T07:19:42;17.03;;;12.17;;
7875;SDS011;69649;53.712;9.680;2023-07-29T07:22:08;17.93;;;12.67;;
7875;SDS011;69649;53.712;9.680;2023-07-29T07:24:33;18.73;;;12.57;;
7875;SDS011;69649;53.712;9.680;2023-07-29T07:26:59;16.70;;;13.10;;
7875;SDS011;69649;53.712;9.680;2023-07-29T07:29:25;18.23;;;12.67;;
7875;SDS011;69649;53.712;9.680;2023-07-29T07:31:52;14.93;;;12.03;;
7875;SDS011;69649;53.712;9.680;2023-07-29T07:34:19;18.20;;;12.07;;
7875;SDS011;69649;53.712;9.680;2023-07-29T07:36:45;15.70;;;11.73;;
7875;SDS011;69649;53.712;9.680;2023-07-29T07:39:11;16.97;;;12.27;;
7875;SDS011;69649;53.712;9.680;2023-07-29T07:41:38;17.37;;;12.80;;
7875;SDS011;69649;53.712;9.680;2023-07-29T07:44:03;17.13;;;13.03;;
7875;SDS011;69649;53.712;9.680;2023-07-29T07:46:29;17.77;;;13.77;;
7875;SDS011;69649;53.712;9.680;2023-07-29T07:48:55;17.27;;;13.30;;
7875;SDS011;69649;53.712;9.680;2023-07-29T07:51:21;19.57;;;13.77;;
7875;SDS011;69649;53.712;9.680;2023-07-29T07:53:46;19.37;;;14.03;;
7875;SDS011;69649;53.712;9.680;2023-07-29T07:56:12;20.27;;;13.93;;
7875;SDS011;69649;53.712;9.680;2023-07-29T07:58:38;18.23;;;13.10;;
7875;SDS011;69649;53.712;9.680;2023-07-29T08:01:04;20.47;;;14.73;;
7875;SDS011;69649;53.712;9.680;2023-07-29T08:03:32;17.47;;;13.50;;
7875;SDS011;69649;53.712;9.680;2023-07-29T08:05:58;17.90;;;13.10;;
7875;SDS011;69649;53.712;9.680;2023-07-29T08:08:29;16.80;;;13.53;;
7875;SDS011;69649;53.712;9.680;2023-07-29T08:10:52;18.47;;;13.47;;
7875;SDS011;69649;53.712;9.680;2023-07-29T08:13:20;17.50;;;13.57;;
7875;SDS011;69649;53.712;9.680;2023-07-29T08:15:47;17.40;;;14.40;;
7875;SDS011;69649;53.712;9.680;2023-07-29T08:18:14;17.53;;;14.40;;
7875;SDS011;69649;53.712;9.680;2023-07-29T08:20:39;19.43;;;15.23;;
7875;SDS011;69649;53.712;9.680;2023-07-29T08:23:05;20.70;;;16.13;;
7875;SDS011;69649;53.712;9.680;2023-07-29T08:25:31;19.77;;;15.80;;
7875;SDS011;69649;53.712;9.680;2023-07-29T08:27:57;22.43;;;18.63;;
7875;SDS011;69649;53.712;9.680;2023-07-29T08:30:23;22.30;;;17.70;;
7875;SDS011;69649;53.712;9.680;2023-07-29T08:32:48;21.80;;;18.30;;
7875;SDS011;69649;53.712;9.680;2023-07-29T08:35:14;23.70;;;16.37;;
7875;SDS011;69649;53.712;9.680;2023-07-29T08:37:40;21.50;;;16.80;;
7875;SDS011;69649;53.712;9.680;2023-07-29T08:40:06;21.87;;;16.07;;
7875;SDS011;69649;53.712;9.680;2023-07-29T08:42:33;20.40;;;14.93;;
7875;SDS011;69649;53.712;9.680;2023-07-29T08:45:01;22.63;;;16.27;;
7875;SDS011;69649;53.712;9.680;2023-07-29T08:47:29;21.17;;;16.70;;
7875;SDS011;69649;53.712;9.680;2023-07-29T08:49:55;17.87;;;14.00;;
7875;SDS011;69649;53.712;9.680;2023-07-29T08:52:21;16.23;;;12.53;;
7875;SDS011;69649;53.712;9.680;2023-07-29T08:54:48;19.33;;;15.23;;
7875;SDS011;69649;53.712;9.680;2023-07-29T08:57:14;18.13;;;14.03;;
7875;SDS011;69649;53.712;9.680;2023-07-29T08:59:40;17.73;;;13.23;;
7875;SDS011;69649;53.712;9.680;2023-07-29T09:02:07;18.07;;;14.33;;
7875;SDS011;69649;53.712;9.680;2023-07-29T09:04:32;17.27;;;12.90;;
7875;SDS011;69649;53.712;9.680;2023-07-29T09:06:58;16.63;;;13.40;;
7875;SDS011;69649;53.712;9.680;2023-07-29T09:09:25;16.57;;;12.93;;
7875;SDS011;69649;53.712;9.680;2023-07-29T09:11:51;17.43;;;12.70;;
7875;SDS011;69649;53.712;9.680;2023-07-29T09:14:17;15.33;;;12.40;;
7875;SDS011;69649;53.712;9.680;2023-07-29T09:16:43;14.53;;;12.83;;
7875;SDS011;69649;53.712;9.680;2023-07-29T09:19:09;13.87;;;11.17;;
7875;SDS011;69649;53.712;9.680;2023-07-29T09:21:38;14.43;;;12.67;;
7875;SDS011;69649;53.712;9.680;2023-07-29T09:24:05;14.27;;;12.20;;
7875;SDS011;69649;53.712;9.680;2023-07-29T09:26:33;11.30;;;9.47;;
7875;SDS011;69649;53.712;9.680;2023-07-29T09:28:59;10.83;;;9.73;;
7875;SDS011;69649;53.712;9.680;2023-07-29T09:31:26;9.80;;;8.83;;
7875;SDS011;69649;53.712;9.680;2023-07-29T09:33:55;10.73;;;9.23;;
7875;SDS011;69649;53.712;9.680;2023-07-29T09:36:22;9.47;;;8.30;;
7875;SDS011;69649;53.712;9.680;2023-07-29T09:38:50;7.27;;;6.57;;
7875;SDS011;69649;53.712;9.680;2023-07-29T09:41:21;8.00;;;7.20;;
7875;SDS011;69649;53.712;9.680;2023-07-29T09:43:51;6.87;;;5.70;;
7875;SDS011;69649;53.712;9.680;2023-07-29T09:46:31;8.33;;;5.00;;
7875;SDS011;69649;53.712;9.680;2023-07-29T09:48:58;6.70;;;6.10;;
7875;SDS011;69649;53.712;9.680;2023-07-29T09:51:24;4.83;;;4.40;;
7875;SDS011;69649;53.712;9.680;2023-07-29T09:53:50;5.80;;;3.90;;
7875;SDS011;69649;53.712;9.680;2023-07-29T09:56:24;4.27;;;3.23;;
7875;SDS011;69649;53.712;9.680;2023-07-29T09:58:52;3.70;;;2.97;;
7875;SDS011;69649;53.712;9.680;2023-07-29T10:01:18;3.10;;;2.90;;
7875;SDS011;69649;53.712;9.680;2023-07-29T10:03:44;2.80;;;2.60;;
7875;SDS011;69649;53.712;9.680;2023-07-29T10:06:10;3.50;;;2.70;;
7875;SDS011;69649;53.712;9.680;2023-07-29T10:08:37;3.03;;;2.83;;
7875;SDS011;69649;53.712;9.680;2023-07-29T10:11:10;3.27;;;2.87;;
7875;SDS011;69649;53.712;9.680;2023-07-29T10:13:35;3.30;;;2.60;;
7875;SDS011;69649;53.712;9.680;2023-07-29T10:16:02;2.63;;;2.37;;
7875;SDS011;69649;53.712;9.680;2023-07-29T10:18:30;3.00;;;2.70;;
7875;SDS011;69649;53.712;9.680;2023-07-29T10:20:58;3.27;;;2.97;;
7875;SDS011;69649;53.712;9.680;2023-07-29T10:23:26;2.40;;;2.20;;
7875;SDS011;69649;53.712;9.680;2023-07-29T10:26:03;2.83;;;2.63;;
7875;SDS011;69649;53.712;9.680;2023-07-29T10:28:30;2.40;;;2.20;;
7875;SDS011;69649;53.712;9.680;2023-07-29T10:30:57;2.83;;;2.53;;
7875;SDS011;69649;53.712;9.680;2023-07-29T10:33:25;3.17;;;2.57;;
7875;SDS011;69649;53.712;9.680;2023-07-29T10:35:51;3.03;;;2.60;;
7875;SDS011;69649;53.712;9.680;2023-07-29T10:38:19;2.47;;;2.30;;
7875;SDS011;69649;53.712;9.680;2023-07-29T10:40:48;3.37;;;3.08;;
7875;SDS011;69649;53.712;9.680;2023-07-29T10:43:26;3.20;;;2.90;;
7875;SDS011;69649;53.712;9.680;2023-07-29T10:45:55;3.20;;;2.90;;
7875;SDS011;69649;53.712;9.680;2023-07-29T10:53:51;3.37;;;3.07;;
7875;SDS011;69649;53.712;9.680;2023-07-29T10:56:30;2.80;;;2.53;;
7875;SDS011;69649;53.712;9.680;2023-07-29T11:01:43;2.73;;;2.53;;
7875;SDS011;69649;53.712;9.680;2023-07-29T11:17:41;3.10;;;2.80;;
7875;SDS011;69649;53.712;9.680;2023-07-29T11:20:09;3.67;;;2.80;;
7875;SDS011;69649;53.712;9.680;2023-07-29T11:22:36;4.30;;;3.40;;
7875;SDS011;69649;53.712;9.680;2023-07-29T11:25:03;4.03;;;2.97;;
7875;SDS011;69649;53.712;9.680;2023-07-29T11:27:30;5.03;;;3.07;;
7875;SDS011;69649;53.712;9.680;2023-07-29T11:30:00;5.80;;;3.65;;
7875;SDS011;69649;53.712;9.680;2023-07-29T11:32:28;3.87;;;3.37;;
7875;SDS011;69649;53.712;9.680;2023-07-29T11:34:55;4.93;;;3.47;;
7875;SDS011;69649;53.712;9.680;2023-07-29T11:37:20;3.90;;;3.50;;
7875;SDS011;69649;53.712;9.680;2023-07-29T11:39:47;4.03;;;3.60;;
7875;SDS011;69649;53.712;9.680;2023-07-29T11:42:13;3.65;;;3.10;;
7875;SDS011;69649;53.712;9.680;2023-07-29T11:44:40;3.87;;;3.57;;
7875;SDS011;69649;53.712;9.680;2023-07-29T11:47:09;2.97;;;2.67;;
7875;SDS011;69649;53.712;9.680;2023-07-29T11:49:38;3.17;;;2.83;;
7875;SDS011;69649;53.712;9.680;2023-07-29T11:52:08;2.60;;;2.33;;
7875;SDS011;69649;53.712;9.680;2023-07-29T11:54:35;2.50;;;2.12;;
7875;SDS011;69649;53.712;9.680;2023-07-29T11:57:08;2.23;;;2.03;;
7875;SDS011;69649;53.712;9.680;2023-07-29T11:59:35;2.60;;;2.40;;
7875;SDS011;69649;53.712;9.680;2023-07-29T12:02:02;2.40;;;2.20;;
7875;SDS011;69649;53.712;9.680;2023-07-29T12:04:31;3.10;;;2.22;;
7875;SDS011;69649;53.712;9.680;2023-07-29T12:06:58;2.47;;;2.27;;
7875;SDS011;69649;53.712;9.680;2023-07-29T12:09:25;2.40;;;2.27;;
7875;SDS011;69649;53.712;9.680;2023-07-29T12:11:52;3.30;;;1.90;;
7875;SDS011;69649;53.712;9.680;2023-07-29T12:14:18;3.80;;;2.47;;
7875;SDS011;69649;53.712;9.680;2023-07-29T12:16:44;2.30;;;2.07;;
7875;SDS011;69649;53.712;9.680;2023-07-29T12:19:12;1.90;;;1.80;;
7875;SDS011;69649;53.712;9.680;2023-07-29T12:21:40;1.90;;;1.80;;
7875;SDS011;69649;53.712;9.680;2023-07-29T12:24:07;4.80;;;2.20;;
7875;SDS011;69649;53.712;9.680;2023-07-29T12:26:33;2.77;;;2.50;;
7875;SDS011;69649;53.712;9.680;2023-07-29T12:29:10;2.67;;;2.13;;
7875;SDS011;69649;53.712;9.680;2023-07-29T12:31:38;2.80;;;2.60;;
7875;SDS011;69649;53.712;9.680;2023-07-29T12:34:04;4.17;;;2.77;;
7875;SDS011;69649;53.712;9.680;2023-07-29T12:36:49;2.37;;;2.17;;
7875;SDS011;69649;53.712;9.680;2023-07-29T12:39:19;2.40;;;2.20;;
7875;SDS011;69649;53.712;9.680;2023-07-29T12:41:48;2.90;;;2.53;;
7875;SDS011;69649;53.712;9.680;2023-07-29T12:44:15;2.90;;;2.50;;
7875;SDS011;69649;53.712;9.680;2023-07-29T12:46:41;3.20;;;2.40;;
7875;SDS011;69649;53.712;9.680;2023-07-29T12:49:07;2.75;;;2.55;;
7875;SDS011;69649;53.712;9.680;2023-07-29T12:51:33;2.98;;;2.42;;
7875;SDS011;69649;53.712;9.680;2023-07-29T12:54:00;2.70;;;2.42;;
7875;SDS011;69649;53.712;9.680;2023-07-29T12:56:26;3.83;;;2.30;;
7875;SDS011;69649;53.712;9.680;2023-07-29T12:58:52;3.33;;;2.35;;
7875;SDS011;69649;53.712;9.680;2023-07-29T13:01:18;2.55;;;2.35;;
7875;SDS011;69649;53.712;9.680;2023-07-29T13:03:44;4.33;;;2.40;;
7875;SDS011;69649;53.712;9.680;2023-07-29T13:06:10;3.02;;;2.40;;
7875;SDS011;69649;53.712;9.680;2023-07-29T13:08:36;2.50;;;2.30;;
7875;SDS011;69649;53.712;9.680;2023-07-29T13:11:03;3.08;;;2.60;;
7875;SDS011;69649;53.712;9.680;2023-07-29T13:13:29;2.13;;;1.83;;
7875;SDS011;69649;53.712;9.680;2023-07-29T13:15:56;3.40;;;2.35;;
7875;SDS011;69649;53.712;9.680;2023-07-29T13:18:22;2.65;;;2.42;;
7875;SDS011;69649;53.712;9.680;2023-07-29T13:20:48;2.22;;;1.80;;
7875;SDS011;69649;53.712;9.680;2023-07-29T13:23:14;2.95;;;2.00;;
7875;SDS011;69649;53.712;9.680;2023-07-29T13:25:41;2.98;;;2.00;;
7875;SDS011;69649;53.712;9.680;2023-07-29T13:28:08;2.10;;;2.00;;
7875;SDS011;69649;53.712;9.680;2023-07-29T13:30:35;60.60;;;21.23;;
7875;SDS011;69649;53.712;9.680;2023-07-29T13:33:01;3.60;;;2.42;;
7875;SDS011;69649;53.712;9.680;2023-07-29T13:35:26;6.45;;;2.40;;
7875;SDS011;69649;53.712;9.680;2023-07-29T13:37:52;5.62;;;2.85;;
7875;SDS011;69649;53.712;9.680;2023-07-29T13:40:18;3.33;;;2.23;;
7875;SDS011;69649;53.712;9.680;2023-07-29T13:42:44;3.13;;;2.67;;
7875;SDS011;69649;53.712;9.680;2023-07-29T13:45:10;3.37;;;2.10;;
7875;SDS011;69649;53.712;9.680;2023-07-29T13:47:36;3.33;;;2.20;;
7875;SDS011;69649;53.712;9.680;2023-07-29T13:50:02;3.50;;;3.20;;
7875;SDS011;69649;53.712;9.680;2023-07-29T13:52:29;3.52;;;2.83;;
7875;SDS011;69649;53.712;9.680;2023-07-29T13:54:54;3.55;;;2.35;;
7875;SDS011;69649;53.712;9.680;2023-07-29T13:57:20;3.17;;;2.45;;
7875;SDS011;69649;53.712;9.680;2023-07-29T13:59:46;3.17;;;2.85;;
7875;SDS011;69649;53.712;9.680;2023-07-29T14:02:12;3.90;;;2.40;;
7875;SDS011;69649;53.712;9.680;2023-07-29T14:04:38;2.62;;;2.42;;
7875;SDS011;69649;53.712;9.680;2023-07-29T14:07:04;2.35;;;1.65;;
7875;SDS011;69649;53.712;9.680;2023-07-29T14:09:30;2.42;;;1.90;;
7875;SDS011;69649;53.712;9.680;2023-07-29T14:11:56;3.17;;;2.40;;
7875;SDS011;69649;53.712;9.680;2023-07-29T14:14:22;2.98;;;2.20;;
7875;SDS011;69649;53.712;9.680;2023-07-29T14:16:48;2.92;;;2.17;;
7875;SDS011;69649;53.712;9.680;2023-07-29T14:19:14;3.72;;;2.02;;
7875;SDS011;69649;53.712;9.680;2023-07-29T14:21:40;2.70;;;2.50;;
7875;SDS011;69649;53.712;9.680;2023-07-29T14:24:06;2.50;;;2.30;;
7875;SDS011;69649;53.712;9.680;2023-07-29T14:26:32;4.08;;;2.75;;
7875;SDS011;69649;53.712;9.680;2023-07-29T14:28:57;3.25;;;2.20;;
7875;SDS011;69649;53.712;9.680;2023-07-29T14:31:23;6.95;;;2.17;;
7875;SDS011;69649;53.712;9.680;2023-07-29T14:33:49;2.98;;;2.33;;
7875;SDS011;69649;53.712;9.680;2023-07-29T14:36:15;2.50;;;2.30;;
7875;SDS011;69649;53.712;9.680;2023-07-29T14:38:41;2.80;;;1.92;;
7875;SDS011;69649;53.712;9.680;2023-07-29T14:41:08;1.92;;;1.82;;
7875;SDS011;69649;53.712;9.680;2023-07-29T14:43:34;3.72;;;2.30;;
7875;SDS011;69649;53.712;9.680;2023-07-29T14:46:00;2.60;;;1.72;;
7875;SDS011;69649;53.712;9.680;2023-07-29T14:48:27;2.33;;;1.70;;
7875;SDS011;69649;53.712;9.680;2023-07-29T14:50:53;4.15;;;2.15;;
7875;SDS011;69649;53.712;9.680;2023-07-29T14:53:19;2.95;;;2.05;;
7875;SDS011;69649;53.712;9.680;2023-07-29T14:55:45;2.95;;;2.20;;
7875;SDS011;69649;53.712;9.680;2023-07-29T14:58:11;2.72;;;1.62;;
7875;SDS011;69649;53.712;9.680;2023-07-29T15:00:37;2.25;;;1.90;;
7875;SDS011;69649;53.712;9.680;2023-07-29T15:03:03;4.05;;;2.58;;
7875;SDS011;69649;53.712;9.680;2023-07-29T15:05:28;2.85;;;2.40;;
7875;SDS011;69649;53.712;9.680;2023-07-29T15:07:54;3.67;;;2.65;;
7875;SDS011;69649;53.712;9.680;2023-07-29T15:10:20;2.15;;;1.92;;
7875;SDS011;69649;53.712;9.680;2023-07-29T15:12:46;2.75;;;2.15;;
7875;SDS011;69649;53.712;9.680;2023-07-29T15:15:12;4.80;;;2.35;;
7875;SDS011;69649;53.712;9.680;2023-07-29T15:17:38;2.33;;;2.12;;